CheckWX is a tool to help pilots better visualize weather data.  It is not intended as a substitute for an official pre-flight weather briefing.

18:30:33 UTC

KGZL METAR
Stigler Regional Airport
Stigler, Oklahoma, USA
Current

16 mins ago

KGZL 241815Z AUTO 02003KT 10SM BKN010 OVC043 18/15 A2989 RMK AO2
Observed
Apr-24 @ 18:15 UTC
Wind
  • 020° at 3 KTS
Visibility
10 SM
Flight Rules
MVFR
Cloud Levels
  • Broken at 1,000' AGL
  • Overcast at 4,300' AGL
Temperature
18°C / 64°F
Dewpoint
15°C / 59°F
Humidity
83%
Altimeter
29.89" Hg
Pressure
1012.22 hPa
Previous

36 mins ago

KGZL 241755Z AUTO 00000KT 10SM BKN008 BKN013 OVC042 18/15 A2990 RMK AO2
Observed
Apr-24 @ 17:55 UTC
Visibility
10 SM
Flight Rules
IFR
Cloud Levels
  • Broken at 800' AGL
  • Broken at 1,300' AGL
  • Overcast at 4,200' AGL
Temperature
18°C / 64°F
Dewpoint
15°C / 59°F
Humidity
83%
Altimeter
29.9" Hg
Pressure
1012.52 hPa
Previous

56 mins ago

KGZL 241735Z AUTO 00000KT 10SM OVC008 17/15 A2992 RMK AO2
Observed
Apr-24 @ 17:35 UTC
Visibility
10 SM
Flight Rules
IFR
Cloud Levels
  • Overcast at 800' AGL
Temperature
17°C / 63°F
Dewpoint
15°C / 59°F
Humidity
88%
Altimeter
29.92" Hg
Pressure
1013.22 hPa